Flight Briefing for CPX967

Departure Arrival
Travis Air Force Base (KSUU)
Click to view FAA NOTAMS
Seattle-Tacoma International Airport (KSEA)
Click to view FAA NOTAMS
Departure Time Arrival Time
N/A N/A
Aircraft Distance
B757-200SF 551nm
Departure METAR Arrival METAR
KSUU 200943Z AUTO 10009KT 10SM BKN045 OVC055 11/09 A2990 RMK AO2 RAE43 SLP132 $ KSEA 200853Z 09011KT 10SM CLR 19/M06 A2994 RMK AO2 SLP141 T01941056 58006
Suggested Route
WAPEX RBL J65 LMT HAWKZ7


View recent IFR Routes data
Notes
EMPTY | NON-REVENUE REPOSITIONING LEG

Charts and Procedures

Charts for KSUU
No chart available
Charts for KSEA
No chart available

Windy.com Weather Map